Time;durP1;ratioP1;P1;durP2;ratioP2;P2;SDS_P1;SDS_P2;PMS_P1;PMS_P2;Temp;Humidity;BMP_temperature;BMP_pressure;BME280_temperature;BME280_humidity;BME280_pressure;Samples;Min_cycle;Max_cycle;Signal;HPM_P1;HPM_P2
2021/12/03 00:00:11;;;;;;;3.80;3.40;;;1.80;1.00;;;;;;4992697;28;20732;-75
2021/12/03 00:02:37;;;;;;;5.25;4.43;;;1.80;1.00;;;;;;4990496;28;20871;-75
2021/12/03 00:05:03;;;;;;;5.03;4.07;;;1.90;1.00;;;;;;4992942;28;20277;-75
2021/12/03 00:07:29;;;;;;;4.78;4.18;;;2.00;1.00;;;;;;4992719;28;20181;-75
2021/12/03 00:09:56;;;;;;;8.17;4.47;;;;;;;;;;4992869;28;20241;-75
2021/12/03 00:12:22;;;;;;;4.10;3.40;;;2.10;1.00;;;;;;4995184;28;20178;-75
2021/12/03 00:14:48;;;;;;;7.30;4.17;;;2.20;1.00;;;;;;4996834;28;20439;-75
2021/12/03 00:17:14;;;;;;;5.03;4.27;;;;;;;;;;4996577;28;20234;-75
2021/12/03 00:19:40;;;;;;;4.33;3.93;;;2.30;1.00;;;;;;4997272;28;20241;-78
2021/12/03 00:22:05;;;;;;;6.35;3.83;;;2.30;1.00;;;;;;4996702;28;20458;-78
2021/12/03 00:24:31;;;;;;;7.07;4.77;;;2.40;1.00;;;;;;4996677;28;20525;-78
2021/12/03 00:26:57;;;;;;;4.80;3.60;;;2.40;1.00;;;;;;4996302;28;20174;-78
2021/12/03 00:29:22;;;;;;;5.67;4.20;;;2.40;1.00;;;;;;4996177;28;20236;-79
2021/12/03 00:31:48;;;;;;;4.20;3.70;;;2.40;1.00;;;;;;4996696;28;20177;-79
2021/12/03 00:34:14;;;;;;;3.80;2.97;;;2.40;1.00;;;;;;4996038;28;20223;-78
2021/12/03 00:36:39;;;;;;;3.30;2.97;;;2.40;1.00;;;;;;4996535;28;20181;-78
2021/12/03 00:39:05;;;;;;;4.03;3.63;;;2.40;1.00;;;;;;4996210;28;20177;-78
2021/12/03 00:41:36;;;;;;;6.47;3.40;;;;;;;;;;4996434;28;20193;-78
2021/12/03 00:44:01;;;;;;;4.13;3.58;;;2.40;1.00;;;;;;4988660;28;20264;-79
2021/12/03 00:46:27;;;;;;;4.73;3.13;;;2.40;1.00;;;;;;4996426;28;20264;-78
2021/12/03 00:48:55;;;;;;;5.23;3.13;;;2.30;1.00;;;;;;4996067;28;20664;-78
2021/12/03 00:51:23;;;;;;;4.72;3.85;;;2.30;1.00;;;;;;4996549;28;20173;-78
2021/12/03 00:53:49;;;;;;;4.25;3.22;;;2.20;1.00;;;;;;4995888;28;20201;-78
2021/12/03 00:56:16;;;;;;;3.87;3.47;;;2.20;1.00;;;;;;4997381;28;20181;-78
2021/12/03 00:58:42;;;;;;;4.72;3.60;;;2.20;1.00;;;;;;4995994;28;20173;-78
2021/12/03 01:01:08;;;;;;;2.77;2.50;;;2.10;1.00;;;;;;4993968;28;20571;-78
2021/12/03 01:03:35;;;;;;;4.55;3.25;;;2.00;1.00;;;;;;4996101;28;20416;-78
2021/12/03 01:06:01;;;;;;;3.20;2.90;;;1.90;1.00;;;;;;4996195;28;20186;-78
2021/12/03 01:08:27;;;;;;;3.45;2.97;;;1.80;1.00;;;;;;4994946;28;20594;-79
2021/12/03 01:10:53;;;;;;;4.90;3.07;;;1.70;1.00;;;;;;4996001;28;20260;-78
2021/12/03 01:13:19;;;;;;;3.47;3.17;;;4.50;1.00;;;;;;4996330;28;20221;-78
2021/12/03 01:15:45;;;;;;;6.28;3.75;;;1.50;1.00;;;;;;4994154;28;20882;-78
2021/12/03 01:18:11;;;;;;;5.07;3.97;;;1.40;1.00;;;;;;4995191;28;20260;-78
2021/12/03 01:20:39;;;;;;;2.97;2.78;;;1.30;1.00;;;;;;4996341;28;20816;-78
2021/12/03 01:23:06;;;;;;;3.15;2.95;;;1.30;1.00;;;;;;4994699;28;20184;-78
2021/12/03 01:25:32;;;;;;;3.67;3.13;;;1.10;1.00;;;;;;4995640;28;20212;-78
2021/12/03 01:28:00;;;;;;;3.47;2.97;;;1.10;1.00;;;;;;4995622;28;20205;-78
2021/12/03 01:30:27;;;;;;;2.90;2.70;;;1.00;1.00;;;;;;4993172;28;20928;-78
2021/12/03 01:32:53;;;;;;;3.00;2.80;;;0.90;1.00;;;;;;4995277;28;20224;-78
2021/12/03 01:35:19;;;;;;;4.93;3.20;;;0.70;1.00;;;;;;4995912;28;20716;-76
2021/12/03 01:37:47;;;;;;;5.38;2.63;;;0.70;1.00;;;;;;4995010;28;20178;-74
2021/12/03 01:40:16;;;;;;;3.97;2.80;;;0.60;1.00;;;;;;4992978;28;20255;-74
2021/12/03 01:42:44;;;;;;;4.82;3.50;;;0.60;1.00;;;;;;4994306;28;20599;-75
2021/12/03 01:45:13;;;;;;;4.80;3.20;;;0.50;1.00;;;;;;4994978;28;20216;-75
2021/12/03 01:47:44;;;;;;;4.85;3.40;;;0.50;1.00;;;;;;4993522;28;20587;-75
2021/12/03 01:50:11;;;;;;;5.93;3.75;;;0.40;1.00;;;;;;4995069;28;20182;-77
2021/12/03 01:52:37;;;;;;;5.40;3.35;;;0.40;1.00;;;;;;4994875;28;20213;-78
2021/12/03 01:55:06;;;;;;;4.55;3.50;;;0.30;1.00;;;;;;4998076;28;20284;-78
2021/12/03 01:57:31;;;;;;;4.50;3.22;;;0.40;1.00;;;;;;4995662;28;20664;-78
2021/12/03 01:59:57;;;;;;;6.77;3.30;;;0.30;1.00;;;;;;4994552;28;20206;-78
2021/12/03 02:02:23;;;;;;;3.90;3.53;;;0.30;1.00;;;;;;4994736;28;20912;-78
2021/12/03 02:04:49;;;;;;;4.63;4.03;;;0.30;1.00;;;;;;4994876;28;20189;-78
2021/12/03 02:07:15;;;;;;;3.70;3.37;;;0.30;1.00;;;;;;4994948;28;20186;-74
2021/12/03 02:09:41;;;;;;;3.40;3.03;;;0.30;1.00;;;;;;4994620;28;20637;-74
2021/12/03 02:12:07;;;;;;;3.47;2.97;;;0.30;1.00;;;;;;4995013;28;20188;-75
2021/12/03 02:14:32;;;;;;;5.72;3.60;;;0.20;1.00;;;;;;4994372;28;20197;-75
2021/12/03 02:16:58;;;;;;;3.20;2.90;;;0.20;1.00;;;;;;4994321;28;20565;-75
2021/12/03 02:19:24;;;;;;;4.00;3.33;;;0.10;1.00;;;;;;4994074;28;20178;-74
2021/12/03 02:21:49;;;;;;;3.40;3.07;;;0.00;1.00;;;;;;4994552;28;20585;-74
2021/12/03 02:24:15;;;;;;;2.90;2.70;;;0.00;1.00;;;;;;4994443;28;20188;-74
2021/12/03 02:26:42;;;;;;;3.50;3.23;;;-0.10;1.00;;;;;;4994311;28;20193;-75
2021/12/03 02:29:08;;;;;;;6.63;3.50;;;-0.10;1.00;;;;;;4993576;28;20192;-74
2021/12/03 02:31:34;;;;;;;4.25;3.20;;;-0.20;1.00;;;;;;4993809;28;20272;-74
2021/12/03 02:34:00;;;;;;;4.25;3.22;;;-0.20;1.00;;;;;;4992790;28;20606;-74
2021/12/03 02:36:26;;;;;;;3.40;3.10;;;-0.20;1.00;;;;;;4993364;28;20269;-78
2021/12/03 02:38:52;;;;;;;4.20;3.70;;;-0.20;1.00;;;;;;4993601;28;20304;-78
2021/12/03 02:41:17;;;;;;;5.82;3.15;;;-0.30;1.00;;;;;;4994108;28;20463;-78
2021/12/03 02:43:44;;;;;;;7.47;3.73;;;-0.30;1.00;;;;;;4993815;28;20268;-78
2021/12/03 02:46:09;;;;;;;3.78;3.38;;;-0.40;1.00;;;;;;4993996;28;20212;-78
2021/12/03 02:48:36;;;;;;;5.20;3.93;;;-0.40;1.00;;;;;;4993867;28;20730;-78
2021/12/03 02:51:06;;;;;;;4.22;3.05;;;-0.40;1.00;;;;;;4994233;28;20431;-77
2021/12/03 02:53:32;;;;;;;5.13;4.10;;;-0.40;1.00;;;;;;4993956;28;20208;-78
2021/12/03 02:55:58;;;;;;;7.55;4.28;;;-0.40;1.00;;;;;;4996511;28;20257;-78
2021/12/03 02:58:23;;;;;;;4.53;3.60;;;-0.40;1.00;;;;;;4993028;28;20197;-78
2021/12/03 03:00:51;;;;;;;7.47;3.90;;;-0.50;1.00;;;;;;4993207;28;20284;-78
2021/12/03 03:03:17;;;;;;;6.18;3.97;;;-0.40;1.00;;;;;;4993866;28;20181;-78
2021/12/03 03:05:56;;;;;;;6.07;4.27;;;-0.50;1.00;;;;;;4993398;28;20174;-78
2021/12/03 03:08:22;;;;;;;6.20;4.13;;;3.30;1.00;;;;;;4985896;28;20413;-75
2021/12/03 03:10:48;;;;;;;4.93;3.90;;;-0.60;1.00;;;;;;4993650;28;20190;-75
2021/12/03 03:13:14;;;;;;;7.30;4.80;;;-0.60;1.00;;;;;;4993586;28;20232;-75
2021/12/03 03:15:40;;;;;;;7.35;4.65;;;-0.60;1.00;;;;;;4992905;28;20425;-75
2021/12/03 03:18:20;;;;;;;6.53;4.30;;;-0.70;1.00;;;;;;4993618;28;20187;-75
2021/12/03 03:20:46;;;;;;;5.50;3.90;;;-0.70;1.00;;;;;;4993407;28;20197;-75
2021/12/03 03:23:13;;;;;;;6.20;4.45;;;-0.70;1.00;;;;;;4993824;28;20186;-78
2021/12/03 03:25:47;;;;;;;7.95;4.68;;;-0.70;1.00;;;;;;4993489;28;20201;-78
2021/12/03 03:28:14;;;;;;;4.82;3.90;;;-0.80;1.00;;;;;;4993489;28;20288;-78
2021/12/03 03:30:42;;;;;;;7.03;5.30;;;-0.80;1.00;;;;;;4992930;28;20555;-78
2021/12/03 03:33:09;;;;;;;5.78;4.05;;;-0.80;1.00;;;;;;4992877;28;20184;-78
2021/12/03 03:35:35;;;;;;;11.05;5.18;;;-0.80;1.00;;;;;;4993392;28;20186;-78
2021/12/03 03:38:02;;;;;;;9.23;5.30;;;-0.80;1.00;;;;;;4993855;28;20264;-75
2021/12/03 03:40:29;;;;;;;9.30;5.25;;;-0.80;1.00;;;;;;4992860;28;20209;-75
2021/12/03 03:42:56;;;;;;;4.97;4.00;;;-0.90;1.00;;;;;;4993184;28;20189;-75
2021/12/03 03:45:24;;;;;;;9.20;4.95;;;-0.90;1.00;;;;;;4992809;28;20665;-75
2021/12/03 03:47:50;;;;;;;8.23;4.95;;;-0.90;1.00;;;;;;4996195;28;20185;-75
2021/12/03 03:50:17;;;;;;;14.73;5.45;;;-0.90;1.00;;;;;;4996018;28;20543;-75
2021/12/03 03:52:44;;;;;;;6.45;4.95;;;-0.90;1.00;;;;;;4997209;28;20183;-78
2021/12/03 03:55:11;;;;;;;10.23;5.55;;;-0.90;1.00;;;;;;5002572;28;20200;-77
2021/12/03 03:57:38;;;;;;;12.73;5.05;;;-1.00;1.00;;;;;;4998628;28;20648;-78
2021/12/03 04:00:06;;;;;;;5.90;4.85;;;-1.00;1.00;;;;;;4997239;28;20508;-77
2021/12/03 04:02:32;;;;;;;6.78;4.72;;;-1.00;1.00;;;;;;4996958;28;20185;-78
2021/12/03 04:04:58;;;;;;;12.93;5.50;;;-1.00;1.00;;;;;;4997052;28;20530;-78
2021/12/03 04:07:24;;;;;;;7.70;5.60;;;;;;;;;;4997159;28;20871;-77
2021/12/03 04:09:50;;;;;;;8.40;5.38;;;-1.00;1.00;;;;;;4996748;28;20421;-78
2021/12/03 04:12:16;;;;;;;7.70;5.10;;;;;;;;;;4996719;28;20189;-77
2021/12/03 04:14:42;;;;;;;5.82;4.90;;;-1.00;1.00;;;;;;4996687;28;20231;-77
2021/12/03 04:17:08;;;;;;;9.63;5.90;;;;;;;;;;4996790;28;20236;-77
2021/12/03 04:19:34;;;;;;;7.40;4.45;;;-1.00;1.00;;;;;;4996715;28;20413;-78
2021/12/03 04:22:00;;;;;;;9.30;5.57;;;;;;;;;;4997043;28;20210;-76
2021/12/03 04:24:25;;;;;;;8.45;5.25;;;-1.00;1.00;;;;;;4996352;28;20180;-75
2021/12/03 04:26:51;;;;;;;10.50;5.50;;;;;;;;;;4996581;28;20178;-75
2021/12/03 04:29:17;;;;;;;16.10;5.25;;;-1.00;1.00;;;;;;4995355;28;20512;-75
2021/12/03 04:31:43;;;;;;;11.77;5.53;;;;;;;;;;4996170;28;20232;-75
2021/12/03 04:34:09;;;;;;;10.07;5.35;;;-1.00;1.00;;;;;;4996353;28;20181;-75
2021/12/03 04:36:34;;;;;;;10.27;6.57;;;-1.00;1.00;;;;;;4996385;28;20209;-76
2021/12/03 04:39:00;;;;;;;16.23;6.20;;;-1.00;1.00;;;;;;4996438;28;20189;-75
2021/12/03 04:41:26;;;;;;;13.83;6.53;;;-0.90;1.00;;;;;;4995771;28;20197;-75
2021/12/03 04:43:51;;;;;;;8.33;5.70;;;-0.90;1.00;;;;;;4995864;28;20424;-75
2021/12/03 04:46:19;;;;;;;5.83;4.57;;;-0.90;1.00;;;;;;4996202;28;20177;-75
2021/12/03 04:48:45;;;;;;;9.80;6.30;;;-0.90;1.00;;;;;;4996023;28;20240;-75
2021/12/03 04:51:11;;;;;;;8.50;5.37;;;-0.90;1.00;;;;;;4995911;28;20655;-75
2021/12/03 04:53:36;;;;;;;9.87;5.37;;;-1.00;1.00;;;;;;4995655;28;20448;-75
2021/12/03 04:56:02;;;;;;;8.90;5.30;;;-1.00;1.00;;;;;;5002891;28;20193;-75
2021/12/03 04:58:28;;;;;;;11.63;6.63;;;-1.00;1.00;;;;;;4994999;28;20268;-75
2021/12/03 05:00:56;;;;;;;12.10;6.50;;;-1.00;1.00;;;;;;4995815;28;20502;-75
2021/12/03 05:03:24;;;;;;;11.20;7.13;;;-1.10;1.00;;;;;;4995543;28;20523;-75
2021/12/03 05:05:55;;;;;;;9.88;5.72;;;-1.00;1.00;;;;;;4995754;28;20640;-75
2021/12/03 05:08:22;;;;;;;9.88;5.53;;;-1.00;1.00;;;;;;4995462;28;20189;-78
2021/12/03 05:10:48;;;;;;;8.85;5.90;;;-1.00;1.00;;;;;;4995930;28;20186;-78
2021/12/03 05:13:19;;;;;;;7.00;5.22;;;-1.00;1.00;;;;;;4996005;28;20194;-78
2021/12/03 05:15:46;;;;;;;9.23;5.65;;;-1.00;1.00;;;;;;4995793;28;20644;-79
2021/12/03 05:18:14;;;;;;;8.63;5.88;;;-1.00;1.00;;;;;;4996370;28;20186;-78
2021/12/03 05:20:41;;;;;;;11.95;5.10;;;-1.10;1.00;;;;;;4995503;28;20291;-78
2021/12/03 05:23:07;;;;;;;8.65;6.38;;;-1.10;1.00;;;;;;4995298;28;20308;-76
2021/12/03 05:25:33;;;;;;;11.07;6.68;;;-1.10;1.00;;;;;;4981564;28;20217;-75
2021/12/03 05:27:59;;;;;;;8.93;5.50;;;-1.10;1.00;;;;;;4995322;28;20268;-76
2021/12/03 05:30:26;;;;;;;9.80;6.30;;;-1.20;1.00;;;;;;4994637;28;20661;-76
2021/12/03 05:32:52;;;;;;;9.88;5.78;;;-1.20;1.00;;;;;;4995733;28;20504;-76
2021/12/03 05:35:18;;;;;;;9.45;5.97;;;-1.20;1.00;;;;;;4995217;28;20641;-76
2021/12/03 05:37:44;;;;;;;8.50;6.32;;;-1.20;1.00;;;;;;4995821;28;20185;-75
2021/12/03 05:40:15;;;;;;;11.90;6.10;;;-1.20;1.00;;;;;;4995417;28;20214;-75
2021/12/03 05:42:42;;;;;;;11.73;6.20;;;-1.20;1.00;;;;;;4991274;28;20664;-75
2021/12/03 05:45:09;;;;;;;9.65;5.78;;;-1.20;1.00;;;;;;4995134;28;20547;-75
2021/12/03 05:47:35;;;;;;;12.18;5.82;;;-1.20;1.00;;;;;;4994634;28;20174;-75
2021/12/03 05:50:01;;;;;;;9.77;5.90;;;-1.30;1.00;;;;;;4994598;28;20192;-75
2021/12/03 05:52:30;;;;;;;9.32;6.10;;;-1.20;1.00;;;;;;4994727;28;20216;-77
2021/12/03 05:54:55;;;;;;;7.70;6.13;;;-1.20;1.00;;;;;;4995015;28;20185;-75
2021/12/03 05:57:21;;;;;;;9.37;6.50;;;;;;;;;;4994469;28;20512;-75
2021/12/03 05:59:47;;;;;;;7.45;4.93;;;-1.20;1.00;;;;;;4994918;28;20255;-75
2021/12/03 06:02:13;;;;;;;14.10;6.00;;;-1.20;1.00;;;;;;4994716;28;20637;-74
2021/12/03 06:04:38;;;;;;;8.83;5.10;;;-1.20;1.00;;;;;;4995077;28;20740;-75
2021/12/03 06:07:05;;;;;;;7.50;5.40;;;-1.20;1.00;;;;;;4994295;28;20420;-75
2021/12/03 06:09:32;;;;;;;6.00;4.55;;;-1.20;1.00;;;;;;4994815;28;20663;-78
2021/12/03 06:12:01;;;;;;;6.93;5.10;;;-1.20;1.00;;;;;;4994708;28;20185;-79
2021/12/03 06:14:28;;;;;;;11.68;5.60;;;-1.20;1.00;;;;;;4995112;28;20224;-78
2021/12/03 06:16:54;;;;;;;7.32;5.07;;;-1.20;1.00;;;;;;4994497;28;20189;-77
2021/12/03 06:19:19;;;;;;;9.57;5.20;;;-1.20;1.00;;;;;;4994222;28;20196;-78
2021/12/03 06:21:45;;;;;;;7.13;4.90;;;-1.10;1.00;;;;;;4994543;28;20491;-78
2021/12/03 06:24:11;;;;;;;7.40;4.37;;;-1.20;1.00;;;;;;4994673;28;20433;-77
2021/12/03 06:26:36;;;;;;;7.73;5.00;;;-1.10;1.00;;;;;;4993976;28;20296;-77
2021/12/03 06:29:03;;;;;;;11.40;5.07;;;-1.20;1.00;;;;;;4994463;28;20533;-77
2021/12/03 06:31:28;;;;;;;9.68;4.60;;;-1.10;1.00;;;;;;4994656;28;20244;-79
2021/12/03 06:33:54;;;;;;;7.13;5.00;;;-1.20;1.00;;;;;;4994032;28;20177;-80
2021/12/03 06:36:20;;;;;;;6.37;4.60;;;-1.20;1.00;;;;;;4994144;28;20582;-78
2021/12/03 06:38:46;;;;;;;8.30;5.00;;;-1.20;1.00;;;;;;4994231;28;20578;-82
2021/12/03 06:41:11;;;;;;;10.03;4.80;;;-1.20;1.00;;;;;;4993270;28;20248;-78
2021/12/03 06:43:37;;;;;;;5.97;4.40;;;-1.20;1.00;;;;;;4994088;28;20181;-77
2021/12/03 06:46:03;;;;;;;10.47;5.00;;;-1.20;1.00;;;;;;4994310;28;20185;-78
2021/12/03 06:48:29;;;;;;;6.80;4.60;;;-1.20;1.00;;;;;;4993615;28;20545;-75
2021/12/03 06:50:54;;;;;;;8.33;4.97;;;-1.20;1.00;;;;;;4992592;28;20174;-77
2021/12/03 06:53:24;;;;;;;6.93;5.03;;;;;;;;;;4993975;28;20193;-77
2021/12/03 06:55:52;;;;;;;7.90;4.90;;;-1.20;1.00;;;;;;4995009;28;20574;-81
2021/12/03 06:58:19;;;;;;;8.25;5.25;;;-1.20;1.00;;;;;;4992733;28;20268;-78
2021/12/03 07:00:48;;;;;;;8.45;5.38;;;-1.20;1.00;;;;;;4992552;28;20189;-77
2021/12/03 07:03:14;;;;;;;8.73;5.47;;;-1.20;1.00;;;;;;4993339;28;20185;-77
2021/12/03 07:05:39;;;;;;;8.37;5.37;;;-1.20;1.00;;;;;;4993758;28;20557;-77
2021/12/03 07:08:06;;;;;;;10.80;6.20;;;;;;;;;;4994051;28;20409;-77
2021/12/03 07:10:31;;;;;;;7.43;5.38;;;-1.10;1.00;;;;;;4993083;28;20428;-77
2021/12/03 07:12:58;;;;;;;8.27;5.10;;;;;;;;;;4992218;28;20196;-77
2021/12/03 07:15:24;;;;;;;8.15;5.55;;;-1.00;1.00;;;;;;4988096;28;20445;-78
2021/12/03 07:17:51;;;;;;;9.85;5.85;;;-1.00;1.00;;;;;;4991330;28;20182;-77
2021/12/03 07:20:22;;;;;;;11.57;5.65;;;-1.00;1.00;;;;;;4993299;28;20208;-77
2021/12/03 07:22:48;;;;;;;8.95;5.43;;;-1.00;1.00;;;;;;4992856;28;20212;-77
2021/12/03 07:25:14;;;;;;;7.22;5.10;;;-0.90;1.00;;;;;;4993779;28;20663;-77
2021/12/03 07:27:40;;;;;;;10.73;5.83;;;-0.90;1.00;;;;;;4992160;28;20185;-77
2021/12/03 07:30:09;;;;;;;7.68;5.35;;;-0.90;1.00;;;;;;4993478;28;20653;-77
2021/12/03 07:32:35;;;;;;;14.35;6.18;;;-0.80;1.00;;;;;;4992469;28;20236;-77
2021/12/03 07:35:01;;;;;;;8.30;5.60;;;-0.80;1.00;;;;;;4993319;28;20633;-77
2021/12/03 07:37:27;;;;;;;13.38;6.55;;;-0.80;1.00;;;;;;4993402;28;20197;-77
2021/12/03 07:39:52;;;;;;;11.17;5.50;;;-0.70;1.00;;;;;;4993722;28;20185;-75
2021/12/03 07:42:18;;;;;;;6.40;4.90;;;-0.70;1.00;;;;;;4993232;28;20177;-75
2021/12/03 07:44:44;;;;;;;9.10;5.47;;;-0.60;1.00;;;;;;4992928;28;20248;-74
2021/12/03 07:47:10;;;;;;;7.15;5.35;;;-0.50;1.00;;;;;;4992595;28;20203;-75
2021/12/03 07:49:39;;;;;;;13.25;5.97;;;-0.50;1.00;;;;;;4993242;28;20597;-75
2021/12/03 07:52:04;;;;;;;8.20;5.72;;;-0.50;1.00;;;;;;4992767;28;20284;-74
2021/12/03 07:54:30;;;;;;;11.33;6.40;;;-0.40;1.00;;;;;;4993397;28;20664;-75
2021/12/03 07:56:56;;;;;;;11.33;6.40;;;-0.40;1.00;;;;;;5002007;28;20181;-75
2021/12/03 07:59:22;;;;;;;9.87;5.90;;;;;;;;;;4992855;28;20182;-74
2021/12/03 08:01:47;;;;;;;7.80;5.90;;;-0.20;1.00;;;;;;4992479;28;20240;-74
2021/12/03 08:04:16;;;;;;;8.70;5.57;;;-0.10;1.00;;;;;;4994783;28;20212;-74
2021/12/03 08:06:51;;;;;;;6.70;5.50;;;0.10;1.00;;;;;;4994180;28;20177;-74
2021/12/03 08:09:23;;;;;;;9.90;5.93;;;0.10;1.00;;;;;;4994515;28;20620;-77
2021/12/03 08:12:10;;;;;;;9.77;5.57;;;0.30;1.00;;;;;;4992842;28;20190;-77
2021/12/03 08:14:41;;;;;;;16.00;6.78;;;0.40;1.00;;;;;;4993742;28;20273;-77
2021/12/03 08:20:29;;;;;;;9.35;6.00;;;0.50;1.00;;;;;;4993488;28;20268;-77
2021/12/03 08:23:17;;;;;;;17.57;6.13;;;0.60;1.00;;;;;;4993578;28;20181;-77
2021/12/03 08:25:56;;;;;;;9.82;5.55;;;0.70;1.00;;;;;;4993050;28;20424;-74
2021/12/03 08:28:23;;;;;;;12.07;5.40;;;0.80;1.00;;;;;;4993395;28;20189;-74
2021/12/03 08:30:49;;;;;;;8.32;5.47;;;0.90;1.00;;;;;;4994066;28;20181;-74
2021/12/03 08:33:17;;;;;;;8.68;6.03;;;1.10;1.00;;;;;;4995450;28;20186;-74
2021/12/03 08:35:44;;;;;;;12.20;7.00;;;1.10;1.00;;;;;;4970139;28;20214;-74
2021/12/03 08:38:11;;;;;;;10.05;6.13;;;1.30;1.00;;;;;;4994859;28;20272;-74
2021/12/03 08:40:54;;;;;;;9.88;5.35;;;1.30;1.00;;;;;;4997814;28;20202;-77
2021/12/03 08:43:22;;;;;;;8.80;5.70;;;1.40;1.00;;;;;;4983224;28;20559;-78
2021/12/03 08:45:54;;;;;;;8.85;5.65;;;1.50;1.00;;;;;;4997096;28;20250;-77
2021/12/03 08:48:24;;;;;;;8.85;5.65;;;1.50;1.00;;;;;;4996824;28;20182;-77
2021/12/03 09:03:53;;;;;;;9.30;4.88;;;2.10;1.00;;;;;;4955508;29;20182;-78
2021/12/03 09:06:22;;;;;;;9.05;5.82;;;2.10;1.00;;;;;;4938231;29;20206;-78
2021/12/03 09:08:48;;;;;;;6.53;4.85;;;2.10;1.00;;;;;;4951718;29;20198;-78
2021/12/03 09:11:15;;;;;;;12.90;6.10;;;2.10;1.00;;;;;;4954941;29;20579;-74
2021/12/03 09:13:42;;;;;;;6.57;4.72;;;;;;;;;;4952805;29;20175;-74
2021/12/03 09:16:15;;;;;;;7.90;5.25;;;2.10;1.00;;;;;;4953873;29;20298;-75
2021/12/03 09:18:43;;;;;;;9.60;5.53;;;2.20;1.00;;;;;;4952036;29;20191;-74
2021/12/03 09:26:11;;;;;;;10.15;5.43;;;2.30;1.00;;;;;;4946097;29;20163;-74
2021/12/03 09:28:39;;;;;;;8.07;5.05;;;2.60;1.00;;;;;;4954407;29;20223;-74
2021/12/03 09:31:06;;;;;;;11.88;5.72;;;2.60;1.00;;;;;;4976212;28;20263;-74
2021/12/03 09:33:34;;;;;;;7.55;5.13;;;2.70;1.00;;;;;;4995386;28;20205;-76
2021/12/03 09:36:17;;;;;;;6.47;4.95;;;3.00;1.00;;;;;;4996154;28;20169;-76
2021/12/03 09:38:43;;;;;;;9.07;5.82;;;3.10;1.00;;;;;;4983532;28;20165;-74
2021/12/03 09:41:15;;;;;;;6.25;4.93;;;3.10;1.00;;;;;;4994627;28;20222;-75
2021/12/03 09:44:34;;;;;;;9.90;5.30;;;3.20;1.00;;;;;;4995958;28;20201;-78
2021/12/03 09:47:00;;;;;;;7.65;5.05;;;3.20;1.00;;;;;;4994261;28;20189;-78
2021/12/03 09:49:32;;;;;;;10.32;5.25;;;3.20;1.00;;;;;;4993146;28;20538;-79
2021/12/03 09:54:48;;;;;;;7.90;4.13;;;3.20;1.00;;;;;;4962042;28;20214;-74
2021/12/03 09:57:29;;;;;;;5.20;4.10;;;3.30;1.00;;;;;;4975839;28;20532;-74
2021/12/03 10:13:18;;;;;;;6.85;5.30;;;3.50;1.00;;;;;;4965725;28;20425;-78
2021/12/03 10:15:58;;;;;;;9.45;5.15;;;3.50;1.00;;;;;;4961813;28;20182;-77
2021/12/03 10:30:23;;;;;;;7.70;4.60;;;3.90;1.00;;;;;;4971809;28;20167;-78
2021/12/03 10:33:45;;;;;;;6.38;4.13;;;3.90;1.00;;;;;;4952525;28;20179;-79
2021/12/03 10:41:31;;;;;;;6.43;4.10;;;4.10;1.00;;;;;;4951922;29;20186;-78
2021/12/03 10:49:58;;;;;;;8.43;4.55;;;4.40;1.00;;;;;;4972563;28;20193;-78
2021/12/03 10:52:35;;;;;;;6.70;3.58;;;;;;;;;;4972044;28;20220;-78
2021/12/03 11:01:07;;;;;;;6.65;4.30;;;4.60;1.00;;;;;;4933845;29;20199;-79
2021/12/03 11:42:44;;;;;;;5.03;2.72;;;4.20;1.00;;;;;;4993524;28;20596;-78
2021/12/03 12:17:16;;;;;;;4.03;2.70;;;4.90;1.00;;;;;;4955576;29;20782;-78
2021/12/03 12:23:51;;;;;;;2.50;1.90;;;5.00;1.00;;;;;;4918374;29;20514;-79
2021/12/03 13:02:03;;;;;;;2.45;1.63;;;4.20;1.00;;;;;;4880435;29;20283;-78
2021/12/03 14:01:52;;;;;;;6.15;2.70;;;3.70;1.00;;;;;;4973227;28;20229;-78
2021/12/03 14:37:42;;;;;;;6.30;2.70;;;3.50;1.00;;;;;;4949556;29;20290;-78
2021/12/03 14:44:04;;;;;;;4.70;1.90;;;3.50;1.00;;;;;;4935297;29;20184;-80
2021/12/03 14:56:25;;;;;;;3.05;2.15;;;3.60;1.00;;;;;;4995396;28;20194;-81
2021/12/03 14:59:30;;;;;;;34.65;11.10;;;3.40;1.00;;;;;;4995121;28;20216;-81
2021/12/03 15:02:36;;;;;;;52.53;26.90;;;3.40;1.00;;;;;;4995154;28;20586;-79
2021/12/03 15:08:01;;;;;;;21.17;10.27;;;;;;;;;;4989237;28;20176;-78
2021/12/03 15:11:05;;;;;;;19.70;12.45;;;;;;;;;;4993267;28;20181;-78
2021/12/03 15:22:20;;;;;;;21.90;5.78;;;;;;;;;;4994253;28;20194;-78
2021/12/03 15:30:59;;;;;;;11.68;8.90;;;;;;;;;;4994631;28;20184;-77
2021/12/03 15:36:15;;;;;;;22.48;9.48;;;;;;;;;;4994046;28;20239;-77
2021/12/03 15:39:08;;;;;;;15.32;12.60;;;;;;;;;;4994154;28;20536;-78
2021/12/03 16:08:25;;;;;;;5.55;3.47;;;;;;;;;;4993683;28;20517;-72
2021/12/03 16:13:31;;;;;;;7.15;2.55;;;;;;;;;;4993836;28;20182;-73
2021/12/03 16:51:33;;;;;;;16.17;7.65;;;;;;;;;;4974420;28;20257;-78
2021/12/03 16:54:08;;;;;;;29.45;15.57;;;;;;;;;;4988374;28;20673;-78
2021/12/03 16:59:43;;;;;;;9.25;8.32;;;;;;;;;;4996995;28;20227;-79
2021/12/03 17:02:41;;;;;;;12.98;8.27;;;;;;;;;;4997159;28;20201;-79
2021/12/03 17:48:48;;;;;;;8.63;3.20;;;;;;;;;;4954250;29;20597;-78
2021/12/03 17:56:45;;;;;;;8.75;2.38;;;;;;;;;;4949257;28;20762;-78
2021/12/03 17:59:24;;;;;;;7.68;2.47;;;;;;;;;;4945114;28;20187;-78
2021/12/03 18:01:59;;;;;;;14.57;4.00;;;;;;;;;;4953417;29;20578;-77
2021/12/03 18:04:42;;;;;;;7.30;3.13;;;;;;;;;;4969091;28;20224;-74
2021/12/03 18:07:14;;;;;;;8.05;2.63;;;;;;;;;;4970546;28;20178;-74
2021/12/03 18:15:45;;;;;;;9.73;3.00;;;;;;;;;;4950375;28;20275;-73
2021/12/03 18:55:45;;;;;;;5.72;2.55;;;;;;;;;;4998755;28;20649;-73
2021/12/03 18:58:11;;;;;;;15.52;4.25;;;;;;;;;;4993663;28;20177;-73
2021/12/03 19:00:38;;;;;;;9.52;3.47;;;;;;;;;;4993441;28;20198;-72
2021/12/03 19:11:03;;;;;;;9.70;2.92;;;;;;;;;;4933479;29;20187;-74
2021/12/03 19:13:35;;;;;;;17.73;3.70;;;;;;;;;;4933651;29;20339;-74
2021/12/03 19:16:03;;;;;;;8.55;2.47;;;;;;;;;;4917066;29;20194;-74
2021/12/03 19:18:29;;;;;;;14.07;3.72;;;;;;;;;;4934570;29;20270;-74
2021/12/03 19:20:57;;;;;;;9.38;2.20;;;;;;;;;;4941829;29;20203;-74
2021/12/03 19:23:23;;;;;;;14.55;3.40;;;;;;;;;;4932392;29;20312;-74
2021/12/03 19:25:50;;;;;;;6.57;2.35;;;;;;;;;;4937845;29;20207;-74
2021/12/03 19:28:16;;;;;;;9.15;2.47;;;;;;;;;;4932861;29;20184;-74
2021/12/03 19:30:42;;;;;;;9.77;3.10;;;;;;;;;;4933368;29;20267;-74
2021/12/03 19:33:08;;;;;;;9.80;3.10;;;;;;;;;;4936814;29;20441;-74
2021/12/03 19:35:34;;;;;;;9.63;2.67;;;;;;;;;;4942512;29;20187;-74
2021/12/03 19:38:03;;;;;;;28.27;5.72;;;;;;;;;;4946797;29;20418;-73
2021/12/03 19:40:34;;;;;;;13.27;3.97;;;;;;;;;;4942654;29;20182;-74
2021/12/03 19:43:05;;;;;;;10.27;3.33;;;;;;;;;;4967110;28;20194;-74
2021/12/03 19:45:35;;;;;;;10.07;2.67;;;;;;;;;;4993554;28;20174;-74
2021/12/03 19:48:09;;;;;;;10.98;3.05;;;;;;;;;;4993063;28;20184;-74
2021/12/03 19:50:47;;;;;;;13.20;3.42;;;;;;;;;;4992900;28;20263;-77
2021/12/03 19:53:16;;;;;;;11.40;3.70;;;;;;;;;;4992732;28;20173;-77
2021/12/03 19:55:44;;;;;;;16.58;4.00;;;;;;;;;;5001579;28;20188;-77
2021/12/03 19:58:11;;;;;;;6.80;2.28;;;;;;;;;;4993196;28;20178;-77
2021/12/03 20:00:38;;;;;;;6.75;1.95;;;;;;;;;;4992978;28;20198;-77
2021/12/03 20:03:04;;;;;;;5.25;2.35;;;;;;;;;;4992974;28;20581;-77
2021/12/03 20:05:30;;;;;;;10.98;3.70;;;;;;;;;;4993531;28;20688;-73
2021/12/03 20:07:58;;;;;;;9.55;2.67;;;;;;;;;;4993023;28;20261;-74
2021/12/03 20:10:26;;;;;;;8.60;2.80;;;;;;;;;;4993243;28;20232;-74
2021/12/03 20:12:53;;;;;;;5.78;2.33;;;;;;;;;;4986651;28;20170;-74
2021/12/03 20:15:28;;;;;;;8.75;2.75;;;;;;;;;;4992783;28;20178;-74
2021/12/03 20:18:09;;;;;;;13.60;3.67;;;;;;;;;;4992851;28;20256;-74
2021/12/03 20:20:35;;;;;;;9.43;2.38;;;;;;;;;;4993207;28;20166;-74
2021/12/03 20:28:37;;;;;;;4.72;1.85;;;;;;;;;;4936291;29;20524;-74
2021/12/03 20:31:06;;;;;;;6.05;2.35;;;;;;;;;;4936346;29;20194;-74
2021/12/03 20:38:50;;;;;;;7.63;2.70;;;;;;;;;;4936600;29;20649;-77
2021/12/03 20:41:27;;;;;;;10.60;3.05;;;;;;;;;;4935988;29;20254;-77
2021/12/03 20:44:06;;;;;;;15.23;2.33;;;;;;;;;;4946263;29;20187;-77
2021/12/03 20:46:49;;;;;;;9.25;2.92;;;;;;;;;;4944601;29;20182;-77
2021/12/03 21:08:13;;;;;;;11.77;3.47;;;;;;;;;;4983572;28;20708;-74
2021/12/03 21:13:34;;;;;;;27.27;3.75;;;;;;;;;;4977795;28;20198;-74
2021/12/03 21:21:38;;;;;;;18.52;4.28;;;;;;;;;;4984286;28;20241;-77
2021/12/03 21:24:06;;;;;;;9.98;4.28;;;;;;;;;;4981418;28;20189;-77
2021/12/03 21:26:33;;;;;;;9.73;4.05;;;;;;;;;;4987582;28;20187;-77
2021/12/03 21:31:57;;;;;;;14.50;5.88;;;;;;;;;;4915720;29;20496;-77
2021/12/03 21:40:17;;;;;;;7.97;2.60;;;;;;;;;;4905851;29;20188;-74
2021/12/03 21:42:44;;;;;;;6.90;2.53;;;;;;;;;;4889941;29;20213;-74
2021/12/03 21:45:10;;;;;;;9.68;2.90;;;;;;;;;;4879277;29;20684;-74
2021/12/03 21:47:38;;;;;;;10.30;2.03;;;;;;;;;;4888509;29;20193;-74
2021/12/03 21:50:07;;;;;;;16.33;3.78;;;;;;;;;;4890361;29;20554;-74
2021/12/03 21:52:33;;;;;;;14.77;3.65;;;;;;;;;;4897247;29;20641;-76
2021/12/03 21:55:05;;;;;;;11.93;3.33;;;;;;;;;;4901148;29;20212;-76
2021/12/03 21:57:31;;;;;;;10.20;2.95;;;;;;;;;;4897525;29;20166;-76
2021/12/03 21:59:57;;;;;;;14.70;3.73;;;;;;;;;;4897434;29;20173;-76
2021/12/03 22:02:23;;;;;;;9.47;2.90;;;;;;;;;;4896669;29;20958;-76
2021/12/03 22:04:49;;;;;;;7.00;2.45;;;;;;;;;;4897319;29;20410;-76
2021/12/03 22:07:15;;;;;;;6.23;2.10;;;;;;;;;;4896073;29;20221;-76
2021/12/03 22:09:41;;;;;;;6.55;2.35;;;;;;;;;;4935747;29;20430;-77